ADDS METAR Data INFO
IDs: Format: Raw Decoded Include TAF

Data at: 0718 UTC 19 Oct 2017

KMAE 190653Z AUTO 33003KT 7SM CLR 12/07 A2996 RMK AO2 SLP145 T01170067
KMAE 190553Z AUTO 27004KT 8SM CLR 11/08 A2996 RMK AO2 SLP145 T01060078 10278 20106 53004
KMAE 190453Z AUTO 00000KT 8SM CLR 12/08 A2996 RMK AO2 SLP142 T01220078
KMAE 190353Z AUTO 00000KT 8SM CLR 16/06 A2996 RMK AO2 SLP142 T01560061
KMAE 190253Z AUTO 00000KT 9SM CLR 15/10 A2995 RMK AO2 SLP143 T01500100 53004
KMAE 190153Z AUTO 29003KT 10SM CLR 18/09 A2994 RMK AO2 SLP139 T01780094
KMAE 190053Z AUTO 28004KT 9SM CLR 23/08 A2994 RMK AO2 SLP136 T02280078
KMAE 182353Z AUTO 29004KT 10SM CLR 28/02 A2994 RMK AO2 SLP138 T02780022 10283 20211 56017
KMAE 182253Z AUTO 29006KT 8SM CLR 28/04 A2995 RMK AO2 SLP141 T02780044
KMAE 182153Z AUTO 29005KT 7SM CLR 27/06 A2997 RMK AO2 SLP146 T02670061
KMAE 182053Z AUTO VRB05KT 6SM HZ CLR 26/07 A2999 RMK AO2 SLP155 T02560072 58020
KMAE 181953Z AUTO 27004KT 6SM HZ CLR 24/07 A3003 RMK AO2 SLP167 T02440072
KMAE 181853Z AUTO 29005KT 7SM CLR 23/07 A3005 RMK AO2 SLP173 T02280067
KMAE 181753Z AUTO 00000KT 7SM CLR 21/06 A3005 RMK AO2 SLP176 T02110061 10211 20078 50006
KMAE 181653Z AUTO 00000KT 8SM CLR 19/04 A3006 RMK AO2 SLP177 T01890044
KMAE 181553Z AUTO 00000KT 6SM HZ CLR 13/07 A3005 RMK AO2 SLP175 T01330067
KMAE 181453Z AUTO 00000KT 5SM HZ CLR 09/06 A3004 RMK AO2 SLP170 T00890056 53009
KMAE 181353Z AUTO 00000KT 5SM BR CLR 08/06 A3003 RMK AO2 SLP166 T00780061
KMAE 181253Z AUTO 10003KT 5SM BR CLR 08/06 A3001 RMK AO2 SLP162 T00830061
KMAE 181153Z AUTO 00000KT 6SM HZ CLR 09/06 A3001 RMK AO2 SLP161 T00890061 10133 20078 56007
KMAE 181053Z AUTO 00000KT 6SM HZ CLR 11/07 A3001 RMK AO2 SLP162 T01110072
KMAE 180953Z AUTO 00000KT 5SM HZ CLR 10/07 A3002 RMK AO2 SLP166 T01000072
KMAE 180853Z AUTO 00000KT 5SM BR CLR 10/08 A3003 RMK AO2 SLP169 T01000078 55001
KMAE 180753Z AUTO 00000KT 6SM HZ CLR 12/07 A3003 RMK AO2 SLP166 T01220072 402610094
KMAE 180653Z AUTO 26003KT 5SM HZ CLR 13/09 A3003 RMK AO2 SLP169 T01330089
KMAE 180553Z AUTO 25003KT 5SM HZ CLR 13/09 A3004 RMK AO2 SLP169 T01330094 10250 20133 51004
KMAE 180453Z AUTO 25005KT 6SM HZ CLR 14/11 A3003 RMK AO2 SLP168 T01440106
KMAE 180353Z AUTO 31005KT 7SM CLR 19/08 A3003 RMK AO2 SLP167 T01890078
KMAE 180253Z AUTO 30005KT 7SM CLR 18/09 A3002 RMK AO2 SLP165 T01830094 55000
KMAE 180153Z AUTO 00000KT 7SM CLR 20/11 A3001 RMK AO2 SLP162 T02000111
KMAE 180053Z AUTO 26005KT 5SM HZ CLR 22/11 A3002 RMK AO2 SLP164 T02220111
KMAE 172353Z AUTO 26004KT 5SM HZ CLR 25/10 A3002 RMK AO2 SLP166 T02500100 10261 20222 56013
KMAE 172253Z AUTO 29004KT 6SM HZ CLR 25/09 A3003 RMK AO2 SLP167 T02500089
KMAE 172153Z AUTO 30004KT 7SM CLR 25/07 A3004 RMK AO2 SLP171 T02500072
KMAE 172053Z AUTO 29006KT 7SM CLR 26/05 A3006 RMK AO2 SLP177 T02560050 58015
KMAE 171953Z AUTO 30006KT 8SM CLR 24/06 A3009 RMK AO2 SLP187 T02440056